sensor_id;sensor_type;location;lat;lon;timestamp;temperature;humidity
5617;DHT22;2830;50.656;7.568;2023-08-17T00:01:38;17.70;99.90
5617;DHT22;2830;50.656;7.568;2023-08-17T00:04:04;17.60;99.90
5617;DHT22;2830;50.656;7.568;2023-08-17T00:06:31;17.70;99.90
5617;DHT22;2830;50.656;7.568;2023-08-17T00:08:58;17.70;99.90
5617;DHT22;2830;50.656;7.568;2023-08-17T00:11:25;17.60;99.90
5617;DHT22;2830;50.656;7.568;2023-08-17T00:13:52;17.50;99.90
5617;DHT22;2830;50.656;7.568;2023-08-17T00:16:18;17.50;99.90
5617;DHT22;2830;50.656;7.568;2023-08-17T00:18:45;17.50;99.90
5617;DHT22;2830;50.656;7.568;2023-08-17T00:21:12;17.40;99.90
5617;DHT22;2830;50.656;7.568;2023-08-17T00:23:39;17.40;99.90
5617;DHT22;2830;50.656;7.568;2023-08-17T00:26:05;17.40;99.90
5617;DHT22;2830;50.656;7.568;2023-08-17T00:28:32;17.50;99.90
5617;DHT22;2830;50.656;7.568;2023-08-17T00:31:00;17.50;99.90
5617;DHT22;2830;50.656;7.568;2023-08-17T00:33:27;17.50;99.90
5617;DHT22;2830;50.656;7.568;2023-08-17T00:35:54;17.50;99.90
5617;DHT22;2830;50.656;7.568;2023-08-17T00:38:20;17.60;99.90
5617;DHT22;2830;50.656;7.568;2023-08-17T00:40:47;17.60;99.90
5617;DHT22;2830;50.656;7.568;2023-08-17T00:43:14;17.70;99.90
5617;DHT22;2830;50.656;7.568;2023-08-17T00:45:46;17.50;99.90
5617;DHT22;2830;50.656;7.568;2023-08-17T00:48:13;17.50;99.90
5617;DHT22;2830;50.656;7.568;2023-08-17T00:50:41;17.50;99.90
5617;DHT22;2830;50.656;7.568;2023-08-17T00:53:08;17.50;99.90
5617;DHT22;2830;50.656;7.568;2023-08-17T00:55:40;17.50;99.90
5617;DHT22;2830;50.656;7.568;2023-08-17T00:58:07;17.40;99.90
5617;DHT22;2830;50.656;7.568;2023-08-17T01:00:34;17.40;99.90
5617;DHT22;2830;50.656;7.568;2023-08-17T01:03:01;17.40;99.90
5617;DHT22;2830;50.656;7.568;2023-08-17T01:05:27;17.30;99.90
5617;DHT22;2830;50.656;7.568;2023-08-17T01:07:55;17.40;99.90
5617;DHT22;2830;50.656;7.568;2023-08-17T01:10:22;17.40;99.90
5617;DHT22;2830;50.656;7.568;2023-08-17T01:12:56;17.50;99.90
5617;DHT22;2830;50.656;7.568;2023-08-17T01:15:37;17.50;99.90
5617;DHT22;2830;50.656;7.568;2023-08-17T01:18:23;17.40;99.90
5617;DHT22;2830;50.656;7.568;2023-08-17T01:20:55;17.50;99.90
5617;DHT22;2830;50.656;7.568;2023-08-17T01:23:23;17.50;99.90
5617;DHT22;2830;50.656;7.568;2023-08-17T01:25:49;17.60;99.90
5617;DHT22;2830;50.656;7.568;2023-08-17T01:28:16;17.50;99.90
5617;DHT22;2830;50.656;7.568;2023-08-17T01:30:56;17.50;99.90
5617;DHT22;2830;50.656;7.568;2023-08-17T01:33:29;17.60;99.90
5617;DHT22;2830;50.656;7.568;2023-08-17T01:36:05;17.60;99.90
5617;DHT22;2830;50.656;7.568;2023-08-17T01:38:34;17.60;99.90
5617;DHT22;2830;50.656;7.568;2023-08-17T01:41:02;17.70;99.90
5617;DHT22;2830;50.656;7.568;2023-08-17T01:43:30;17.80;99.90
5617;DHT22;2830;50.656;7.568;2023-08-17T01:45:58;17.70;99.90
5617;DHT22;2830;50.656;7.568;2023-08-17T01:48:25;17.60;99.90
5617;DHT22;2830;50.656;7.568;2023-08-17T01:50:51;17.70;99.90
5617;DHT22;2830;50.656;7.568;2023-08-17T01:53:18;17.80;99.90
5617;DHT22;2830;50.656;7.568;2023-08-17T01:55:45;17.80;99.90
5617;DHT22;2830;50.656;7.568;2023-08-17T01:58:11;17.90;99.90
5617;DHT22;2830;50.656;7.568;2023-08-17T02:00:38;17.80;99.90
5617;DHT22;2830;50.656;7.568;2023-08-17T02:03:05;17.80;99.90
5617;DHT22;2830;50.656;7.568;2023-08-17T02:05:32;17.80;99.90
5617;DHT22;2830;50.656;7.568;2023-08-17T02:07:58;17.90;99.90
5617;DHT22;2830;50.656;7.568;2023-08-17T02:10:25;18.00;99.90
5617;DHT22;2830;50.656;7.568;2023-08-17T02:12:52;18.00;99.90
5617;DHT22;2830;50.656;7.568;2023-08-17T02:15:27;18.00;99.90
5617;DHT22;2830;50.656;7.568;2023-08-17T02:17:54;17.90;99.90
5617;DHT22;2830;50.656;7.568;2023-08-17T02:20:21;17.80;99.90
5617;DHT22;2830;50.656;7.568;2023-08-17T02:22:47;17.80;99.90
5617;DHT22;2830;50.656;7.568;2023-08-17T02:25:14;17.90;99.90
5617;DHT22;2830;50.656;7.568;2023-08-17T02:27:41;17.90;99.90
5617;DHT22;2830;50.656;7.568;2023-08-17T02:30:08;18.00;99.90
5617;DHT22;2830;50.656;7.568;2023-08-17T02:32:35;18.10;99.90
5617;DHT22;2830;50.656;7.568;2023-08-17T02:35:02;18.00;99.90
5617;DHT22;2830;50.656;7.568;2023-08-17T02:37:28;17.90;99.90
5617;DHT22;2830;50.656;7.568;2023-08-17T02:39:56;18.00;99.90
5617;DHT22;2830;50.656;7.568;2023-08-17T02:42:23;18.00;99.90
5617;DHT22;2830;50.656;7.568;2023-08-17T02:44:50;17.90;99.90
5617;DHT22;2830;50.656;7.568;2023-08-17T02:47:17;17.90;99.90
5617;DHT22;2830;50.656;7.568;2023-08-17T02:49:43;18.00;99.90
5617;DHT22;2830;50.656;7.568;2023-08-17T02:52:10;18.00;99.90
5617;DHT22;2830;50.656;7.568;2023-08-17T02:54:37;18.10;99.90
5617;DHT22;2830;50.656;7.568;2023-08-17T02:57:04;18.00;99.90
5617;DHT22;2830;50.656;7.568;2023-08-17T02:59:35;18.00;99.90
5617;DHT22;2830;50.656;7.568;2023-08-17T03:02:02;18.00;99.90
5617;DHT22;2830;50.656;7.568;2023-08-17T03:04:29;18.10;99.90
5617;DHT22;2830;50.656;7.568;2023-08-17T03:06:55;18.10;99.90
5617;DHT22;2830;50.656;7.568;2023-08-17T03:09:22;18.10;99.90
5617;DHT22;2830;50.656;7.568;2023-08-17T03:11:49;18.10;99.90
5617;DHT22;2830;50.656;7.568;2023-08-17T03:14:15;18.10;99.90
5617;DHT22;2830;50.656;7.568;2023-08-17T03:16:42;18.20;99.90
5617;DHT22;2830;50.656;7.568;2023-08-17T03:19:13;18.20;99.90
5617;DHT22;2830;50.656;7.568;2023-08-17T03:21:40;18.10;99.90
5617;DHT22;2830;50.656;7.568;2023-08-17T03:24:07;18.10;99.90
5617;DHT22;2830;50.656;7.568;2023-08-17T03:26:33;18.10;99.90
5617;DHT22;2830;50.656;7.568;2023-08-17T03:29:00;18.00;99.90
5617;DHT22;2830;50.656;7.568;2023-08-17T03:31:27;18.00;99.90
5617;DHT22;2830;50.656;7.568;2023-08-17T03:33:54;18.00;99.90
5617;DHT22;2830;50.656;7.568;2023-08-17T03:36:22;18.00;99.90
5617;DHT22;2830;50.656;7.568;2023-08-17T03:38:49;18.00;99.90
5617;DHT22;2830;50.656;7.568;2023-08-17T03:41:15;18.00;99.90
5617;DHT22;2830;50.656;7.568;2023-08-17T03:43:42;18.10;99.90
5617;DHT22;2830;50.656;7.568;2023-08-17T03:46:09;18.00;99.90
5617;DHT22;2830;50.656;7.568;2023-08-17T03:48:35;17.90;99.90
5617;DHT22;2830;50.656;7.568;2023-08-17T03:51:02;17.90;99.90
5617;DHT22;2830;50.656;7.568;2023-08-17T03:53:29;17.90;99.90
5617;DHT22;2830;50.656;7.568;2023-08-17T03:55:56;17.90;99.90
5617;DHT22;2830;50.656;7.568;2023-08-17T03:58:22;17.90;99.90
5617;DHT22;2830;50.656;7.568;2023-08-17T04:00:50;17.90;99.90
5617;DHT22;2830;50.656;7.568;2023-08-17T04:03:18;17.90;99.90
5617;DHT22;2830;50.656;7.568;2023-08-17T04:05:44;17.90;99.90
5617;DHT22;2830;50.656;7.568;2023-08-17T04:08:11;17.90;99.90
5617;DHT22;2830;50.656;7.568;2023-08-17T04:10:39;18.00;99.90
5617;DHT22;2830;50.656;7.568;2023-08-17T04:13:06;17.50;99.90
5617;DHT22;2830;50.656;7.568;2023-08-17T04:15:33;18.00;99.90
5617;DHT22;2830;50.656;7.568;2023-08-17T04:17:59;18.00;99.90
5617;DHT22;2830;50.656;7.568;2023-08-17T04:20:26;18.10;99.90
5617;DHT22;2830;50.656;7.568;2023-08-17T04:22:53;18.10;99.90
5617;DHT22;2830;50.656;7.568;2023-08-17T04:25:20;18.10;99.90
5617;DHT22;2830;50.656;7.568;2023-08-17T04:27:46;18.10;99.90
5617;DHT22;2830;50.656;7.568;2023-08-17T04:30:13;18.10;99.90
5617;DHT22;2830;50.656;7.568;2023-08-17T04:32:47;18.10;99.90
5617;DHT22;2830;50.656;7.568;2023-08-17T04:35:20;18.10;99.90
5617;DHT22;2830;50.656;7.568;2023-08-17T04:37:47;18.10;99.90
5617;DHT22;2830;50.656;7.568;2023-08-17T04:40:15;18.10;99.90
5617;DHT22;2830;50.656;7.568;2023-08-17T04:42:41;18.00;99.90
5617;DHT22;2830;50.656;7.568;2023-08-17T04:45:09;17.90;99.90
5617;DHT22;2830;50.656;7.568;2023-08-17T04:47:36;17.80;99.90
5617;DHT22;2830;50.656;7.568;2023-08-17T04:50:03;17.80;99.90
5617;DHT22;2830;50.656;7.568;2023-08-17T04:52:30;17.90;99.90
5617;DHT22;2830;50.656;7.568;2023-08-17T04:54:57;18.00;99.90
5617;DHT22;2830;50.656;7.568;2023-08-17T04:57:23;18.00;99.90
5617;DHT22;2830;50.656;7.568;2023-08-17T04:59:51;17.90;99.90
5617;DHT22;2830;50.656;7.568;2023-08-17T05:02:17;18.00;99.90
5617;DHT22;2830;50.656;7.568;2023-08-17T05:04:47;18.00;99.90
5617;DHT22;2830;50.656;7.568;2023-08-17T05:07:14;18.00;99.90
5617;DHT22;2830;50.656;7.568;2023-08-17T05:09:41;17.90;99.90
5617;DHT22;2830;50.656;7.568;2023-08-17T05:12:08;17.80;99.90
5617;DHT22;2830;50.656;7.568;2023-08-17T05:14:34;17.70;99.90
5617;DHT22;2830;50.656;7.568;2023-08-17T05:17:01;17.70;99.90
5617;DHT22;2830;50.656;7.568;2023-08-17T05:19:28;17.70;99.90
5617;DHT22;2830;50.656;7.568;2023-08-17T05:21:54;17.70;99.90
5617;DHT22;2830;50.656;7.568;2023-08-17T05:24:21;17.70;99.90
5617;DHT22;2830;50.656;7.568;2023-08-17T05:26:50;17.80;99.90
5617;DHT22;2830;50.656;7.568;2023-08-17T05:29:16;17.70;99.90
5617;DHT22;2830;50.656;7.568;2023-08-17T05:31:43;17.80;99.90
5617;DHT22;2830;50.656;7.568;2023-08-17T05:34:10;17.90;99.90
5617;DHT22;2830;50.656;7.568;2023-08-17T05:36:37;18.00;99.90
5617;DHT22;2830;50.656;7.568;2023-08-17T05:39:04;18.10;99.90
5617;DHT22;2830;50.656;7.568;2023-08-17T05:41:30;18.00;99.90
5617;DHT22;2830;50.656;7.568;2023-08-17T05:43:57;18.20;99.90
5617;DHT22;2830;50.656;7.568;2023-08-17T05:46:24;18.20;99.90
5617;DHT22;2830;50.656;7.568;2023-08-17T05:48:50;18.20;99.90
5617;DHT22;2830;50.656;7.568;2023-08-17T05:51:17;18.30;99.90
5617;DHT22;2830;50.656;7.568;2023-08-17T05:53:44;18.40;99.90
5617;DHT22;2830;50.656;7.568;2023-08-17T05:56:11;18.40;99.90
5617;DHT22;2830;50.656;7.568;2023-08-17T05:58:37;18.50;99.90
5617;DHT22;2830;50.656;7.568;2023-08-17T06:01:06;18.50;99.90
5617;DHT22;2830;50.656;7.568;2023-08-17T06:03:34;18.60;99.90
5617;DHT22;2830;50.656;7.568;2023-08-17T06:06:02;18.60;99.90
5617;DHT22;2830;50.656;7.568;2023-08-17T06:08:29;18.50;99.90
5617;DHT22;2830;50.656;7.568;2023-08-17T06:10:56;18.60;99.90
5617;DHT22;2830;50.656;7.568;2023-08-17T06:13:23;18.60;99.90
5617;DHT22;2830;50.656;7.568;2023-08-17T06:15:50;18.70;99.90
5617;DHT22;2830;50.656;7.568;2023-08-17T06:18:16;18.70;99.90
5617;DHT22;2830;50.656;7.568;2023-08-17T06:20:44;18.80;99.90
5617;DHT22;2830;50.656;7.568;2023-08-17T06:23:12;18.90;99.90
5617;DHT22;2830;50.656;7.568;2023-08-17T06:25:39;19.10;99.90
5617;DHT22;2830;50.656;7.568;2023-08-17T06:28:06;19.20;99.90
5617;DHT22;2830;50.656;7.568;2023-08-17T06:30:33;19.20;99.90
5617;DHT22;2830;50.656;7.568;2023-08-17T06:33:00;19.40;99.90
5617;DHT22;2830;50.656;7.568;2023-08-17T06:35:26;19.40;99.90
5617;DHT22;2830;50.656;7.568;2023-08-17T06:37:53;19.50;99.90
5617;DHT22;2830;50.656;7.568;2023-08-17T06:40:24;19.60;99.90
5617;DHT22;2830;50.656;7.568;2023-08-17T06:42:51;19.60;99.90
5617;DHT22;2830;50.656;7.568;2023-08-17T06:45:20;19.60;99.90
5617;DHT22;2830;50.656;7.568;2023-08-17T06:47:49;19.70;99.90
5617;DHT22;2830;50.656;7.568;2023-08-17T06:50:16;19.70;99.90
5617;DHT22;2830;50.656;7.568;2023-08-17T06:52:43;19.80;99.90
5617;DHT22;2830;50.656;7.568;2023-08-17T06:55:10;19.90;99.90
5617;DHT22;2830;50.656;7.568;2023-08-17T06:57:51;19.90;99.90
5617;DHT22;2830;50.656;7.568;2023-08-17T07:00:19;20.10;99.90
5617;DHT22;2830;50.656;7.568;2023-08-17T07:02:47;20.10;99.90
5617;DHT22;2830;50.656;7.568;2023-08-17T07:05:20;20.20;99.90
5617;DHT22;2830;50.656;7.568;2023-08-17T07:07:47;20.30;99.90
5617;DHT22;2830;50.656;7.568;2023-08-17T07:10:14;20.30;99.90
5617;DHT22;2830;50.656;7.568;2023-08-17T07:12:41;20.20;99.90
5617;DHT22;2830;50.656;7.568;2023-08-17T07:15:08;20.40;99.90
5617;DHT22;2830;50.656;7.568;2023-08-17T07:17:35;20.60;99.90
5617;DHT22;2830;50.656;7.568;2023-08-17T07:20:04;20.70;99.90
5617;DHT22;2830;50.656;7.568;2023-08-17T07:22:34;20.90;99.90
5617;DHT22;2830;50.656;7.568;2023-08-17T07:25:02;21.00;99.90
5617;DHT22;2830;50.656;7.568;2023-08-17T07:27:35;21.10;99.90
5617;DHT22;2830;50.656;7.568;2023-08-17T07:30:03;21.10;99.90
5617;DHT22;2830;50.656;7.568;2023-08-17T07:32:29;20.90;99.90
5617;DHT22;2830;50.656;7.568;2023-08-17T07:34:58;20.90;99.90
5617;DHT22;2830;50.656;7.568;2023-08-17T07:37:25;20.90;99.90
5617;DHT22;2830;50.656;7.568;2023-08-17T07:39:59;21.00;99.90
5617;DHT22;2830;50.656;7.568;2023-08-17T07:42:26;20.90;99.90
5617;DHT22;2830;50.656;7.568;2023-08-17T07:44:53;21.10;99.90
5617;DHT22;2830;50.656;7.568;2023-08-17T07:47:20;21.00;99.90
5617;DHT22;2830;50.656;7.568;2023-08-17T07:49:47;21.00;99.90
5617;DHT22;2830;50.656;7.568;2023-08-17T07:52:15;20.90;99.90
5617;DHT22;2830;50.656;7.568;2023-08-17T07:54:42;20.80;99.90
5617;DHT22;2830;50.656;7.568;2023-08-17T07:57:09;20.70;99.90
5617;DHT22;2830;50.656;7.568;2023-08-17T07:59:36;20.70;99.90
5617;DHT22;2830;50.656;7.568;2023-08-17T08:02:03;20.60;99.90
5617;DHT22;2830;50.656;7.568;2023-08-17T08:04:33;20.70;99.90
5617;DHT22;2830;50.656;7.568;2023-08-17T08:07:00;20.80;99.90
5617;DHT22;2830;50.656;7.568;2023-08-17T08:09:27;20.90;99.90
5617;DHT22;2830;50.656;7.568;2023-08-17T08:11:54;21.00;99.90
5617;DHT22;2830;50.656;7.568;2023-08-17T08:14:20;21.20;99.90
5617;DHT22;2830;50.656;7.568;2023-08-17T08:16:47;21.30;99.90
5617;DHT22;2830;50.656;7.568;2023-08-17T08:19:14;21.40;99.90
5617;DHT22;2830;50.656;7.568;2023-08-17T08:21:50;21.50;99.90
5617;DHT22;2830;50.656;7.568;2023-08-17T08:24:17;21.60;99.90
5617;DHT22;2830;50.656;7.568;2023-08-17T08:27:03;21.60;99.90
5617;DHT22;2830;50.656;7.568;2023-08-17T08:29:30;21.60;99.90
5617;DHT22;2830;50.656;7.568;2023-08-17T08:31:57;21.50;99.90
5617;DHT22;2830;50.656;7.568;2023-08-17T08:34:26;21.60;99.90
5617;DHT22;2830;50.656;7.568;2023-08-17T08:36:53;21.50;99.90
5617;DHT22;2830;50.656;7.568;2023-08-17T08:39:20;21.60;99.90
5617;DHT22;2830;50.656;7.568;2023-08-17T08:41:47;21.60;99.90
5617;DHT22;2830;50.656;7.568;2023-08-17T08:44:19;21.50;99.90
5617;DHT22;2830;50.656;7.568;2023-08-17T08:46:48;21.50;99.90
5617;DHT22;2830;50.656;7.568;2023-08-17T08:49:20;21.60;99.90
5617;DHT22;2830;50.656;7.568;2023-08-17T08:51:49;21.60;99.90
5617;DHT22;2830;50.656;7.568;2023-08-17T08:54:26;21.50;99.90
5617;DHT22;2830;50.656;7.568;2023-08-17T08:57:02;21.50;99.90
5617;DHT22;2830;50.656;7.568;2023-08-17T08:59:31;21.70;99.90
5617;DHT22;2830;50.656;7.568;2023-08-17T09:02:05;21.70;99.90
5617;DHT22;2830;50.656;7.568;2023-08-17T09:04:32;21.80;99.90
5617;DHT22;2830;50.656;7.568;2023-08-17T09:07:00;21.90;99.90
5617;DHT22;2830;50.656;7.568;2023-08-17T09:09:28;21.90;99.90
5617;DHT22;2830;50.656;7.568;2023-08-17T09:11:56;22.20;99.90
5617;DHT22;2830;50.656;7.568;2023-08-17T09:14:23;22.20;99.90
5617;DHT22;2830;50.656;7.568;2023-08-17T09:16:50;22.20;99.90
5617;DHT22;2830;50.656;7.568;2023-08-17T09:19:18;22.40;99.90
5617;DHT22;2830;50.656;7.568;2023-08-17T09:21:46;22.60;99.90
5617;DHT22;2830;50.656;7.568;2023-08-17T09:24:18;22.50;99.90
5617;DHT22;2830;50.656;7.568;2023-08-17T09:26:45;22.40;99.90
5617;DHT22;2830;50.656;7.568;2023-08-17T09:29:19;22.50;99.90
5617;DHT22;2830;50.656;7.568;2023-08-17T09:31:47;22.30;99.90
5617;DHT22;2830;50.656;7.568;2023-08-17T09:34:17;22.10;99.90
5617;DHT22;2830;50.656;7.568;2023-08-17T09:36:48;22.00;99.90
5617;DHT22;2830;50.656;7.568;2023-08-17T09:39:18;22.00;99.90
5617;DHT22;2830;50.656;7.568;2023-08-17T09:41:44;22.10;99.90
5617;DHT22;2830;50.656;7.568;2023-08-17T09:44:11;21.90;99.90
5617;DHT22;2830;50.656;7.568;2023-08-17T09:46:46;21.90;99.90
5617;DHT22;2830;50.656;7.568;2023-08-17T09:49:13;21.70;99.90
5617;DHT22;2830;50.656;7.568;2023-08-17T09:51:43;21.70;99.90
5617;DHT22;2830;50.656;7.568;2023-08-17T09:54:21;21.70;99.90
5617;DHT22;2830;50.656;7.568;2023-08-17T09:56:50;22.00;99.90
5617;DHT22;2830;50.656;7.568;2023-08-17T09:59:19;21.80;99.90
5617;DHT22;2830;50.656;7.568;2023-08-17T10:01:48;22.00;99.90
5617;DHT22;2830;50.656;7.568;2023-08-17T10:04:23;21.90;99.90
5617;DHT22;2830;50.656;7.568;2023-08-17T10:07:00;22.10;99.90
5617;DHT22;2830;50.656;7.568;2023-08-17T10:09:32;22.00;99.90
5617;DHT22;2830;50.656;7.568;2023-08-17T10:12:04;21.90;99.90
5617;DHT22;2830;50.656;7.568;2023-08-17T10:14:38;21.70;99.90
5617;DHT22;2830;50.656;7.568;2023-08-17T10:17:09;21.80;99.90
5617;DHT22;2830;50.656;7.568;2023-08-17T10:19:54;21.90;99.90
5617;DHT22;2830;50.656;7.568;2023-08-17T10:22:42;22.00;99.90
5617;DHT22;2830;50.656;7.568;2023-08-17T10:25:11;22.00;99.90
5617;DHT22;2830;50.656;7.568;2023-08-17T10:27:43;21.90;99.90
5617;DHT22;2830;50.656;7.568;2023-08-17T10:30:11;21.90;99.90
5617;DHT22;2830;50.656;7.568;2023-08-17T10:32:38;22.00;99.90
5617;DHT22;2830;50.656;7.568;2023-08-17T10:35:08;22.00;99.90
5617;DHT22;2830;50.656;7.568;2023-08-17T10:37:35;22.10;99.90
5617;DHT22;2830;50.656;7.568;2023-08-17T10:40:02;22.10;99.90
5617;DHT22;2830;50.656;7.568;2023-08-17T10:42:33;22.00;99.90
5617;DHT22;2830;50.656;7.568;2023-08-17T10:47:48;22.10;99.90
5617;DHT22;2830;50.656;7.568;2023-08-17T10:50:24;22.20;99.90
5617;DHT22;2830;50.656;7.568;2023-08-17T10:52:53;22.50;99.90
5617;DHT22;2830;50.656;7.568;2023-08-17T10:55:40;24.70;99.90
5617;DHT22;2830;50.656;7.568;2023-08-17T10:58:08;27.20;99.90
5617;DHT22;2830;50.656;7.568;2023-08-17T11:00:41;28.00;99.90
5617;DHT22;2830;50.656;7.568;2023-08-17T11:03:14;27.60;99.90
5617;DHT22;2830;50.656;7.568;2023-08-17T11:05:45;27.60;99.90
5617;DHT22;2830;50.656;7.568;2023-08-17T11:08:21;28.00;99.90
5617;DHT22;2830;50.656;7.568;2023-08-17T11:13:31;30.10;99.90
5617;DHT22;2830;50.656;7.568;2023-08-17T11:15:58;30.90;99.90
5617;DHT22;2830;50.656;7.568;2023-08-17T11:18:30;30.40;99.90
5617;DHT22;2830;50.656;7.568;2023-08-17T11:20:57;29.30;99.90
5617;DHT22;2830;50.656;7.568;2023-08-17T11:23:24;28.30;99.90
5617;DHT22;2830;50.656;7.568;2023-08-17T11:25:55;27.70;99.90
5617;DHT22;2830;50.656;7.568;2023-08-17T11:28:22;27.40;99.90
5617;DHT22;2830;50.656;7.568;2023-08-17T11:31:00;27.00;99.90
5617;DHT22;2830;50.656;7.568;2023-08-17T11:33:28;26.90;99.90
5617;DHT22;2830;50.656;7.568;2023-08-17T11:35:56;26.70;99.90
5617;DHT22;2830;50.656;7.568;2023-08-17T11:38:33;26.50;99.90
5617;DHT22;2830;50.656;7.568;2023-08-17T11:41:00;26.70;99.90
5617;DHT22;2830;50.656;7.568;2023-08-17T11:43:30;26.90;99.90
5617;DHT22;2830;50.656;7.568;2023-08-17T11:45:59;27.20;99.90
5617;DHT22;2830;50.656;7.568;2023-08-17T11:48:26;27.40;99.90
5617;DHT22;2830;50.656;7.568;2023-08-17T11:50:54;28.40;99.90
5617;DHT22;2830;50.656;7.568;2023-08-17T11:53:21;29.30;99.90
5617;DHT22;2830;50.656;7.568;2023-08-17T11:55:49;29.80;99.90
5617;DHT22;2830;50.656;7.568;2023-08-17T11:58:36;30.20;99.90
5617;DHT22;2830;50.656;7.568;2023-08-17T12:01:09;29.90;99.90
5617;DHT22;2830;50.656;7.568;2023-08-17T12:03:35;29.60;99.90
5617;DHT22;2830;50.656;7.568;2023-08-17T12:06:04;29.40;99.90
5617;DHT22;2830;50.656;7.568;2023-08-17T12:08:31;29.40;99.90
5617;DHT22;2830;50.656;7.568;2023-08-17T12:10:58;29.40;99.90
5617;DHT22;2830;50.656;7.568;2023-08-17T12:13:34;29.10;99.90
5617;DHT22;2830;50.656;7.568;2023-08-17T12:16:01;29.00;99.90
5617;DHT22;2830;50.656;7.568;2023-08-17T12:18:31;28.70;99.90
5617;DHT22;2830;50.656;7.568;2023-08-17T12:20:58;28.30;99.90
5617;DHT22;2830;50.656;7.568;2023-08-17T12:23:25;27.90;99.90
5617;DHT22;2830;50.656;7.568;2023-08-17T12:25:53;27.80;99.90
5617;DHT22;2830;50.656;7.568;2023-08-17T12:28:20;27.40;99.90
5617;DHT22;2830;50.656;7.568;2023-08-17T12:31:00;27.30;99.90
5617;DHT22;2830;50.656;7.568;2023-08-17T12:33:28;27.40;99.90
5617;DHT22;2830;50.656;7.568;2023-08-17T12:35:55;28.00;99.90
5617;DHT22;2830;50.656;7.568;2023-08-17T12:38:24;28.20;99.90
5617;DHT22;2830;50.656;7.568;2023-08-17T12:40:52;28.10;99.90
5617;DHT22;2830;50.656;7.568;2023-08-17T12:43:19;27.60;99.90
5617;DHT22;2830;50.656;7.568;2023-08-17T12:45:45;27.40;99.90
5617;DHT22;2830;50.656;7.568;2023-08-17T12:48:12;27.90;99.90
5617;DHT22;2830;50.656;7.568;2023-08-17T12:50:39;28.60;99.90
5617;DHT22;2830;50.656;7.568;2023-08-17T12:53:09;28.90;99.90
5617;DHT22;2830;50.656;7.568;2023-08-17T12:55:36;29.00;99.90
5617;DHT22;2830;50.656;7.568;2023-08-17T12:58:03;28.90;99.90
5617;DHT22;2830;50.656;7.568;2023-08-17T13:00:30;28.70;99.90
5617;DHT22;2830;50.656;7.568;2023-08-17T13:02:56;28.50;99.90
5617;DHT22;2830;50.656;7.568;2023-08-17T13:05:23;27.90;99.90
5617;DHT22;2830;50.656;7.568;2023-08-17T13:07:50;28.00;99.90
5617;DHT22;2830;50.656;7.568;2023-08-17T13:10:17;28.00;99.90
5617;DHT22;2830;50.656;7.568;2023-08-17T13:12:43;28.30;99.90
5617;DHT22;2830;50.656;7.568;2023-08-17T13:15:10;28.40;99.90
5617;DHT22;2830;50.656;7.568;2023-08-17T13:17:37;28.10;99.90
5617;DHT22;2830;50.656;7.568;2023-08-17T13:20:04;28.00;99.90
5617;DHT22;2830;50.656;7.568;2023-08-17T13:22:32;27.90;99.90
5617;DHT22;2830;50.656;7.568;2023-08-17T13:24:59;27.90;99.90
5617;DHT22;2830;50.656;7.568;2023-08-17T13:27:27;27.70;99.90
5617;DHT22;2830;50.656;7.568;2023-08-17T13:29:54;27.80;99.90
5617;DHT22;2830;50.656;7.568;2023-08-17T13:32:21;27.80;99.90
5617;DHT22;2830;50.656;7.568;2023-08-17T13:34:48;27.80;99.90
5617;DHT22;2830;50.656;7.568;2023-08-17T13:37:14;28.10;99.90
5617;DHT22;2830;50.656;7.568;2023-08-17T13:39:43;28.30;99.90
5617;DHT22;2830;50.656;7.568;2023-08-17T13:42:09;28.30;99.90
5617;DHT22;2830;50.656;7.568;2023-08-17T13:44:36;28.30;99.90
5617;DHT22;2830;50.656;7.568;2023-08-17T13:47:03;28.00;99.90
5617;DHT22;2830;50.656;7.568;2023-08-17T13:49:30;27.90;99.90
5617;DHT22;2830;50.656;7.568;2023-08-17T13:51:56;27.80;99.90
5617;DHT22;2830;50.656;7.568;2023-08-17T13:54:23;27.70;99.90
5617;DHT22;2830;50.656;7.568;2023-08-17T13:56:51;27.40;99.90
5617;DHT22;2830;50.656;7.568;2023-08-17T13:59:17;27.30;99.90
5617;DHT22;2830;50.656;7.568;2023-08-17T14:01:44;27.20;99.90
5617;DHT22;2830;50.656;7.568;2023-08-17T14:04:11;27.00;99.90
5617;DHT22;2830;50.656;7.568;2023-08-17T14:06:39;27.00;99.90
5617;DHT22;2830;50.656;7.568;2023-08-17T14:09:06;27.00;99.90
5617;DHT22;2830;50.656;7.568;2023-08-17T14:11:33;27.00;99.90
5617;DHT22;2830;50.656;7.568;2023-08-17T14:14:00;26.70;99.90
5617;DHT22;2830;50.656;7.568;2023-08-17T14:16:30;26.40;99.90
5617;DHT22;2830;50.656;7.568;2023-08-17T14:18:57;26.20;99.90
5617;DHT22;2830;50.656;7.568;2023-08-17T14:21:23;25.90;99.90
5617;DHT22;2830;50.656;7.568;2023-08-17T14:23:50;25.70;99.90
5617;DHT22;2830;50.656;7.568;2023-08-17T14:26:17;25.50;99.90
5617;DHT22;2830;50.656;7.568;2023-08-17T14:28:43;25.60;99.90
5617;DHT22;2830;50.656;7.568;2023-08-17T14:31:10;25.70;99.90
5617;DHT22;2830;50.656;7.568;2023-08-17T14:33:44;25.80;99.90
5617;DHT22;2830;50.656;7.568;2023-08-17T14:36:14;25.80;99.90
5617;DHT22;2830;50.656;7.568;2023-08-17T14:38:45;25.80;99.90
5617;DHT22;2830;50.656;7.568;2023-08-17T14:41:13;25.80;99.90
5617;DHT22;2830;50.656;7.568;2023-08-17T14:43:40;25.80;99.90
5617;DHT22;2830;50.656;7.568;2023-08-17T14:46:07;25.80;99.90
5617;DHT22;2830;50.656;7.568;2023-08-17T14:48:40;25.80;99.90
5617;DHT22;2830;50.656;7.568;2023-08-17T14:51:07;25.70;99.90
5617;DHT22;2830;50.656;7.568;2023-08-17T14:53:34;25.70;99.90
5617;DHT22;2830;50.656;7.568;2023-08-17T14:56:05;25.60;99.90
5617;DHT22;2830;50.656;7.568;2023-08-17T14:58:31;25.50;99.90
5617;DHT22;2830;50.656;7.568;2023-08-17T15:00:59;25.70;99.90
5617;DHT22;2830;50.656;7.568;2023-08-17T15:03:27;25.70;99.90
5617;DHT22;2830;50.656;7.568;2023-08-17T15:05:54;25.60;99.90
5617;DHT22;2830;50.656;7.568;2023-08-17T15:08:21;25.60;99.90
5617;DHT22;2830;50.656;7.568;2023-08-17T15:10:48;25.50;99.90
5617;DHT22;2830;50.656;7.568;2023-08-17T15:13:15;25.40;99.90
5617;DHT22;2830;50.656;7.568;2023-08-17T15:15:42;25.30;99.90
5617;DHT22;2830;50.656;7.568;2023-08-17T15:18:11;25.40;99.90
5617;DHT22;2830;50.656;7.568;2023-08-17T15:20:40;25.30;99.90
5617;DHT22;2830;50.656;7.568;2023-08-17T15:23:07;25.30;99.90
5617;DHT22;2830;50.656;7.568;2023-08-17T15:25:34;25.10;99.90
5617;DHT22;2830;50.656;7.568;2023-08-17T15:28:00;25.10;99.90
5617;DHT22;2830;50.656;7.568;2023-08-17T15:30:27;25.10;99.90
5617;DHT22;2830;50.656;7.568;2023-08-17T15:32:55;25.00;99.90
5617;DHT22;2830;50.656;7.568;2023-08-17T15:35:22;25.00;99.90
5617;DHT22;2830;50.656;7.568;2023-08-17T15:37:49;25.00;99.90
5617;DHT22;2830;50.656;7.568;2023-08-17T15:40:15;25.10;99.90
5617;DHT22;2830;50.656;7.568;2023-08-17T15:42:42;24.90;99.90
5617;DHT22;2830;50.656;7.568;2023-08-17T15:45:11;24.90;99.90
5617;DHT22;2830;50.656;7.568;2023-08-17T15:47:37;24.80;99.90
5617;DHT22;2830;50.656;7.568;2023-08-17T15:50:05;24.70;99.90
5617;DHT22;2830;50.656;7.568;2023-08-17T15:52:32;24.80;99.90
5617;DHT22;2830;50.656;7.568;2023-08-17T15:54:59;24.70;99.90
5617;DHT22;2830;50.656;7.568;2023-08-17T15:57:25;24.80;99.90
5617;DHT22;2830;50.656;7.568;2023-08-17T15:59:53;24.80;99.90
5617;DHT22;2830;50.656;7.568;2023-08-17T16:02:19;24.70;99.90
5617;DHT22;2830;50.656;7.568;2023-08-17T16:04:46;24.60;99.90
5617;DHT22;2830;50.656;7.568;2023-08-17T16:07:13;24.60;99.90
5617;DHT22;2830;50.656;7.568;2023-08-17T16:09:40;24.60;99.90
5617;DHT22;2830;50.656;7.568;2023-08-17T16:12:08;24.60;99.90
5617;DHT22;2830;50.656;7.568;2023-08-17T16:14:35;24.70;99.90